Time;durP1;ratioP1;P1;durP2;ratioP2;P2;SDS_P1;SDS_P2;PMS_P1;PMS_P2;Temp;Humidity;BMP_temperature;BMP_pressure;BME280_temperature;BME280_humidity;BME280_pressure;Samples;Min_cycle;Max_cycle;Signal;HPM_P1;HPM_P2
2023/09/30 00:00:37;;;;;;;1999.90;999.90;;;15.30;78.20;;;;;;5035943;28;20033;-73
2023/09/30 00:03:03;;;;;;;1999.90;999.90;;;15.20;78.30;;;;;;5035932;28;20037;-73
2023/09/30 00:05:28;;;;;;;1999.90;999.90;;;15.20;78.50;;;;;;5032114;28;20028;-73
2023/09/30 00:07:54;;;;;;;1999.90;999.90;;;15.10;78.50;;;;;;5035082;28;20037;-73
2023/09/30 00:10:20;;;;;;;1999.90;999.90;;;15.10;78.90;;;;;;5030881;28;20029;-73
2023/09/30 00:12:45;;;;;;;1999.90;999.90;;;15.10;79.10;;;;;;5033235;28;20025;-73
2023/09/30 00:15:11;;;;;;;1999.90;999.90;;;15.00;79.30;;;;;;5027691;28;20384;-74
2023/09/30 00:17:37;;;;;;;1999.90;999.90;;;14.90;79.60;;;;;;5034434;28;20033;-74
2023/09/30 00:20:04;;;;;;;1999.90;999.90;;;14.90;79.60;;;;;;5033005;28;20432;-74
2023/09/30 00:22:29;;;;;;;1999.90;999.90;;;14.90;79.80;;;;;;5034307;28;20068;-74
2023/09/30 00:24:55;;;;;;;1999.90;999.90;;;14.90;79.80;;;;;;5037543;28;20053;-74
2023/09/30 00:27:21;;;;;;;1999.90;999.90;;;14.90;79.70;;;;;;5037279;28;20057;-73
2023/09/30 00:29:47;;;;;;;1999.90;999.90;;;15.00;79.50;;;;;;5031704;28;20049;-73
2023/09/30 00:32:13;;;;;;;1999.90;999.90;;;15.00;79.30;;;;;;5039529;28;20050;-73
2023/09/30 00:34:40;;;;;;;1999.90;999.90;;;15.10;79.20;;;;;;5037510;28;20053;-74
2023/09/30 00:37:06;;;;;;;1999.90;999.90;;;15.00;79.40;;;;;;5038423;28;20029;-73
2023/09/30 00:39:33;;;;;;;1999.90;999.90;;;15.00;79.50;;;;;;5038986;28;20094;-73
2023/09/30 00:41:58;;;;;;;1999.90;999.90;;;14.90;79.90;;;;;;5037003;28;20040;-73
2023/09/30 00:44:26;;;;;;;1999.90;999.90;;;14.90;80.00;;;;;;5031433;28;20026;-74
2023/09/30 00:46:51;;;;;;;1999.90;999.90;;;14.80;80.30;;;;;;5043694;28;20037;-74
2023/09/30 00:49:18;;;;;;;1999.90;999.90;;;14.70;80.60;;;;;;5053317;28;20054;-73
2023/09/30 00:51:45;;;;;;;1999.90;999.90;;;14.70;80.90;;;;;;5049755;28;20374;-73
2023/09/30 00:54:11;;;;;;;1999.90;999.90;;;14.60;81.20;;;;;;5055892;28;20021;-74
2023/09/30 00:56:48;;;;;;;1999.90;999.90;;;14.60;81.20;;;;;;5058040;28;20506;-74
2023/09/30 00:59:15;;;;;;;1999.90;999.90;;;14.60;81.20;;;;;;5059058;28;20044;-74
2023/09/30 01:01:44;;;;;;;1999.90;999.90;;;14.60;81.40;;;;;;5058326;28;20033;-74
2023/09/30 01:04:14;;;;;;;1999.90;999.90;;;14.60;81.50;;;;;;5054526;28;20033;-74
2023/09/30 01:06:40;;;;;;;1999.90;999.90;;;14.60;81.60;;;;;;5042676;28;20158;-74
2023/09/30 01:09:08;;;;;;;1999.90;999.90;;;14.50;81.60;;;;;;5031204;28;20407;-75
2023/09/30 01:11:34;;;;;;;1999.90;999.90;;;14.50;81.80;;;;;;5036496;28;20043;-74
2023/09/30 01:14:00;;;;;;;1999.90;999.90;;;14.50;82.30;;;;;;5033478;28;20488;-75
2023/09/30 01:16:25;;;;;;;1999.90;999.90;;;14.50;82.00;;;;;;5034351;28;20080;-74
2023/09/30 01:18:51;;;;;;;1999.90;999.90;;;14.40;82.20;;;;;;5029206;28;20033;-74
2023/09/30 01:21:18;;;;;;;1999.90;999.90;;;14.30;82.40;;;;;;5039409;28;20084;-74
2023/09/30 01:23:45;;;;;;;1999.90;999.90;;;14.30;82.60;;;;;;5035029;28;20032;-74
2023/09/30 01:26:12;;;;;;;1999.90;999.90;;;14.30;82.90;;;;;;5034302;28;20033;-74
2023/09/30 01:28:39;;;;;;;1999.90;999.90;;;14.10;83.40;;;;;;5034242;28;20040;-75
2023/09/30 01:31:05;;;;;;;1999.90;999.90;;;14.10;83.30;;;;;;5033399;28;20041;-74
2023/09/30 01:33:32;;;;;;;1999.90;999.90;;;14.10;83.40;;;;;;5039026;28;20033;-74
2023/09/30 01:35:59;;;;;;;1999.90;999.90;;;14.00;84.00;;;;;;5029818;28;21272;-74
2023/09/30 01:38:25;;;;;;;1999.90;999.90;;;14.00;83.90;;;;;;5036490;28;20029;-74
2023/09/30 01:40:51;;;;;;;1999.90;999.90;;;13.90;84.10;;;;;;5034522;28;20033;-74
2023/09/30 01:43:17;;;;;;;1999.90;999.90;;;13.80;84.50;;;;;;5034996;28;20048;-74
2023/09/30 01:45:44;;;;;;;1999.90;999.90;;;13.80;85.00;;;;;;5038741;28;20060;-75
2023/09/30 01:48:11;;;;;;;1999.90;999.90;;;13.80;85.10;;;;;;5032126;28;20038;-75
2023/09/30 01:50:39;;;;;;;1999.90;999.90;;;13.70;86.20;;;;;;5032135;28;20048;-75
2023/09/30 01:53:06;;;;;;;1999.90;999.90;;;13.70;85.50;;;;;;5026531;28;20056;-74
2023/09/30 01:55:36;;;;;;;1999.90;999.90;;;13.60;85.80;;;;;;5039570;28;20017;-75
2023/09/30 01:58:02;;;;;;;1999.90;999.90;;;13.60;86.00;;;;;;5032670;28;20476;-74
2023/09/30 02:00:28;;;;;;;1999.90;999.90;;;13.70;85.80;;;;;;5034541;28;20034;-74
2023/09/30 02:02:55;;;;;;;1999.90;999.90;;;13.70;86.10;;;;;;5032782;28;20047;-76
2023/09/30 02:05:23;;;;;;;1999.90;999.90;;;13.70;86.10;;;;;;5038044;28;20127;-74
2023/09/30 02:07:50;;;;;;;1999.90;999.90;;;13.70;86.10;;;;;;5032545;28;20045;-75
2023/09/30 02:10:18;;;;;;;1999.90;999.90;;;13.70;85.90;;;;;;5040086;28;20411;-75
2023/09/30 02:12:44;;;;;;;1999.90;999.90;;;13.70;86.20;;;;;;5035883;28;20040;-74
2023/09/30 02:15:11;;;;;;;1999.90;999.90;;;13.70;86.20;;;;;;5035742;28;20088;-74
2023/09/30 02:17:37;;;;;;;1999.90;999.90;;;13.70;86.10;;;;;;5036626;28;20112;-74
2023/09/30 02:20:07;;;;;;;1999.90;999.90;;;13.70;86.30;;;;;;5034678;28;20647;-73
2023/09/30 02:22:33;;;;;;;1999.90;999.90;;;13.70;85.90;;;;;;5035834;28;20033;-74
2023/09/30 02:24:58;;;;;;;1999.90;999.90;;;13.70;85.90;;;;;;5033596;28;20045;-74
2023/09/30 02:27:24;;;;;;;1999.90;999.90;;;13.60;86.20;;;;;;5038600;28;20036;-74
2023/09/30 02:29:50;;;;;;;1999.90;999.90;;;13.60;86.20;;;;;;5035431;28;20037;-74
2023/09/30 02:32:16;;;;;;;1999.90;999.90;;;13.60;86.20;;;;;;4997781;28;1117645;-75
2023/09/30 02:34:44;;;;;;;1999.90;999.90;;;13.50;86.40;;;;;;5034916;28;20036;-75
2023/09/30 02:37:10;;;;;;;1999.90;999.90;;;13.50;87.10;;;;;;5033649;28;20079;-74
2023/09/30 02:39:37;;;;;;;1999.90;999.90;;;13.50;86.70;;;;;;5035986;28;20067;-74
2023/09/30 02:42:02;;;;;;;1999.90;999.90;;;13.30;86.90;;;;;;5036896;28;20039;-74
2023/09/30 02:44:28;;;;;;;1999.90;999.90;;;13.20;87.70;;;;;;5033893;28;20025;-73
2023/09/30 02:46:54;;;;;;;1999.90;999.90;;;13.10;87.70;;;;;;5034307;28;20037;-74
2023/09/30 02:49:21;;;;;;;1999.90;999.90;;;13.00;88.20;;;;;;5029816;28;20060;-73
2023/09/30 02:51:46;;;;;;;1999.90;999.90;;;13.10;88.50;;;;;;5035515;28;20033;-74
2023/09/30 02:54:15;;;;;;;1999.90;999.90;;;13.10;88.90;;;;;;5037104;28;20084;-75
2023/09/30 02:56:41;;;;;;;1999.90;999.90;;;13.10;89.00;;;;;;5038519;28;20036;-75
2023/09/30 02:59:07;;;;;;;1999.90;999.90;;;13.10;88.40;;;;;;5032803;28;20033;-74
2023/09/30 03:01:33;;;;;;;1999.90;999.90;;;13.20;88.50;;;;;;5029898;28;20045;-74
2023/09/30 03:03:59;;;;;;;1999.90;999.90;;;13.20;88.00;;;;;;5033882;28;20033;-74
2023/09/30 03:06:24;;;;;;;1999.90;999.90;;;13.20;87.80;;;;;;5032671;28;20160;-74
2023/09/30 03:08:51;;;;;;;1999.90;999.90;;;13.30;87.60;;;;;;5029765;28;20037;-74
2023/09/30 03:11:19;;;;;;;1999.90;999.90;;;13.30;88.00;;;;;;5030967;28;20041;-74
2023/09/30 03:13:45;;;;;;;1999.90;999.90;;;13.40;87.90;;;;;;5033974;28;20029;-74
2023/09/30 03:16:11;;;;;;;1999.90;999.90;;;13.50;87.60;;;;;;5034842;28;20026;-74
2023/09/30 03:18:37;;;;;;;1999.90;999.90;;;13.40;87.10;;;;;;5033964;28;20048;-74
2023/09/30 03:21:08;;;;;;;1999.90;999.90;;;13.50;87.00;;;;;;5030676;28;20128;-74
2023/09/30 03:23:35;;;;;;;1999.90;999.90;;;13.50;86.80;;;;;;5038270;28;20039;-74
2023/09/30 03:26:00;;;;;;;1999.90;999.90;;;13.60;87.00;;;;;;5031830;28;20514;-74
2023/09/30 03:28:26;;;;;;;1999.90;999.90;;;13.50;86.80;;;;;;5034546;28;20068;-74
2023/09/30 03:30:52;;;;;;;1999.90;999.90;;;13.60;86.60;;;;;;5033514;28;20053;-75
2023/09/30 03:33:18;;;;;;;1999.90;999.90;;;13.30;86.90;;;;;;5039011;28;20030;-74
2023/09/30 03:35:44;;;;;;;1999.90;999.90;;;13.20;88.30;;;;;;5026249;28;20688;-75
2023/09/30 03:38:12;;;;;;;1999.90;999.90;;;13.30;88.90;;;;;;5038494;28;20038;-74
2023/09/30 03:40:39;;;;;;;1999.90;999.90;;;13.10;88.90;;;;;;5035605;28;20131;-74
2023/09/30 03:43:10;;;;;;;1999.90;999.90;;;13.10;89.30;;;;;;5037946;28;20116;-75
2023/09/30 03:45:39;;;;;;;1999.90;999.90;;;13.10;89.70;;;;;;5035562;28;20060;-75
2023/09/30 03:48:06;;;;;;;1999.90;999.90;;;13.20;90.10;;;;;;5041839;28;20067;-75
2023/09/30 03:50:32;;;;;;;1999.90;999.90;;;13.40;89.70;;;;;;5040084;28;20037;-75
2023/09/30 03:53:07;;;;;;;1999.90;999.90;;;13.40;88.60;;;;;;5032436;28;20087;-74
2023/09/30 03:55:33;;;;;;;1999.90;999.90;;;13.40;88.80;;;;;;5038761;28;20112;-75
2023/09/30 03:57:59;;;;;;;1999.90;999.90;;;13.40;88.70;;;;;;5040012;28;20036;-75
2023/09/30 04:00:25;;;;;;;1999.90;999.90;;;13.30;88.40;;;;;;5036420;28;20140;-74
2023/09/30 04:02:57;;;;;;;1999.90;999.90;;;13.40;88.80;;;;;;5041406;28;20099;-75
2023/09/30 04:05:28;;;;;;;1999.90;999.90;;;13.50;88.10;;;;;;5036299;28;20047;-74
2023/09/30 04:07:55;;;;;;;1999.90;999.90;;;13.40;88.30;;;;;;5035566;28;20037;-74
2023/09/30 04:10:22;;;;;;;1999.90;999.90;;;13.30;88.30;;;;;;5035132;28;20038;-74
2023/09/30 04:12:48;;;;;;;1999.90;999.90;;;13.30;88.80;;;;;;5036615;28;20098;-75
2023/09/30 04:15:14;;;;;;;1999.90;999.90;;;13.40;88.70;;;;;;5039217;28;20029;-75
2023/09/30 04:17:40;;;;;;;1999.90;999.90;;;13.20;88.80;;;;;;5041576;28;20483;-74
2023/09/30 04:20:09;;;;;;;1999.90;999.90;;;13.10;89.90;;;;;;5036386;28;20034;-74
2023/09/30 04:22:35;;;;;;;1999.90;999.90;;;13.20;89.80;;;;;;5041505;28;20025;-75
2023/09/30 04:25:02;;;;;;;1999.90;999.90;;;13.00;90.00;;;;;;5031796;28;20507;-75
2023/09/30 04:27:28;;;;;;;1999.90;999.90;;;13.00;90.10;;;;;;5041831;28;20033;-74
2023/09/30 04:29:53;;;;;;;1999.90;999.90;;;12.80;90.20;;;;;;5042561;28;20112;-75
2023/09/30 04:32:19;;;;;;;1999.90;999.90;;;12.80;90.30;;;;;;5035454;28;20053;-74
2023/09/30 04:34:46;;;;;;;1999.90;999.90;;;12.80;90.10;;;;;;5031884;28;20053;-74
2023/09/30 04:37:13;;;;;;;1999.90;999.90;;;12.60;90.30;;;;;;5033626;28;20033;-74
2023/09/30 04:39:39;;;;;;;1999.90;999.90;;;12.60;90.80;;;;;;5040369;28;20573;-75
2023/09/30 04:42:05;;;;;;;1999.90;999.90;;;12.40;90.50;;;;;;5039331;28;20038;-75
2023/09/30 04:44:31;;;;;;;1999.90;999.90;;;12.40;90.90;;;;;;5038842;28;20029;-75
2023/09/30 04:46:57;;;;;;;1999.90;999.90;;;12.30;90.70;;;;;;5033926;28;20041;-74
2023/09/30 04:49:23;;;;;;;1999.90;999.90;;;12.40;91.40;;;;;;5031736;28;20626;-73
2023/09/30 04:51:49;;;;;;;1999.90;999.90;;;12.30;91.30;;;;;;5037158;28;20476;-74
2023/09/30 04:54:15;;;;;;;1999.90;999.90;;;12.10;91.10;;;;;;5034221;28;20084;-74
2023/09/30 04:56:41;;;;;;;1999.90;999.90;;;12.00;91.30;;;;;;5032517;28;20035;-74
2023/09/30 04:59:07;;;;;;;1999.90;999.90;;;12.00;91.30;;;;;;5033274;28;20689;-74
2023/09/30 05:01:32;;;;;;;1999.90;999.90;;;12.00;91.80;;;;;;5030951;28;20391;-74
2023/09/30 05:03:58;;;;;;;1999.90;999.90;;;12.20;91.60;;;;;;5035369;28;20076;-74
2023/09/30 05:06:24;;;;;;;1999.90;999.90;;;12.20;91.80;;;;;;5035716;28;20144;-74
2023/09/30 05:08:50;;;;;;;1999.90;999.90;;;12.20;91.80;;;;;;5029364;28;20454;-74
2023/09/30 05:11:16;;;;;;;1999.90;999.90;;;12.30;91.80;;;;;;5035126;28;20040;-74
2023/09/30 05:13:41;;;;;;;1999.90;999.90;;;12.30;91.60;;;;;;5035856;28;20032;-74
2023/09/30 05:16:07;;;;;;;1999.90;999.90;;;12.30;91.20;;;;;;5033281;28;21273;-74
2023/09/30 05:18:33;;;;;;;1999.90;999.90;;;12.20;91.10;;;;;;5029656;28;20049;-74
2023/09/30 05:21:00;;;;;;;1999.90;999.90;;;12.30;91.10;;;;;;5031273;28;20080;-74
2023/09/30 05:23:25;;;;;;;1999.90;999.90;;;12.30;91.20;;;;;;5027740;28;20084;-74
2023/09/30 05:25:52;;;;;;;1999.90;999.90;;;12.30;91.10;;;;;;5030490;28;20729;-73
2023/09/30 05:28:20;;;;;;;1999.90;999.90;;;12.20;91.20;;;;;;5029914;28;20040;-79
2023/09/30 05:30:46;;;;;;;1999.90;999.90;;;12.10;91.20;;;;;;5030390;28;20128;-76
2023/09/30 05:33:14;;;;;;;1999.90;999.90;;;12.30;91.50;;;;;;5036753;28;20033;-75
2023/09/30 05:35:41;;;;;;;1999.90;999.90;;;12.40;91.60;;;;;;5029917;28;20108;-76
2023/09/30 05:38:07;;;;;;;1999.90;999.90;;;12.40;91.30;;;;;;5026542;28;20044;-76
2023/09/30 05:40:33;;;;;;;1999.90;999.90;;;12.60;91.20;;;;;;5033150;28;20467;-77
2023/09/30 05:42:59;;;;;;;1999.90;999.90;;;12.50;91.20;;;;;;5031367;28;20083;-77
2023/09/30 05:45:27;;;;;;;1999.90;999.90;;;12.60;91.20;;;;;;5031100;28;20108;-76
2023/09/30 05:47:56;;;;;;;1999.90;999.90;;;12.60;91.00;;;;;;5032076;28;20039;-78
2023/09/30 05:50:26;;;;;;;1999.90;999.90;;;12.70;91.00;;;;;;5034608;28;20030;-81
2023/09/30 05:52:55;;;;;;;1999.90;999.90;;;12.70;90.70;;;;;;5035922;28;20462;-80
2023/09/30 05:55:22;;;;;;;1999.90;999.90;;;12.60;91.20;;;;;;5033663;28;20052;-79
2023/09/30 05:57:52;;;;;;;1999.90;999.90;;;12.80;91.10;;;;;;5035881;28;20103;-80
2023/09/30 06:00:28;;;;;;;1999.90;999.90;;;12.90;90.80;;;;;;5029912;28;20017;-78
2023/09/30 06:02:55;;;;;;;1999.90;999.90;;;12.90;90.90;;;;;;5036034;28;20037;-79
2023/09/30 06:05:22;;;;;;;1999.90;999.90;;;12.90;90.80;;;;;;5028920;28;20034;-81
2023/09/30 06:07:51;;;;;;;1999.90;999.90;;;13.00;90.60;;;;;;5040207;28;20395;-80
2023/09/30 06:10:20;;;;;;;1999.90;999.90;;;13.00;90.70;;;;;;5030530;28;20041;-81
2023/09/30 06:12:54;;;;;;;1999.90;999.90;;;13.10;90.50;;;;;;5017510;28;20049;-81
2023/09/30 06:15:21;;;;;;;1999.90;999.90;;;13.10;90.80;;;;;;5038511;28;20053;-80
2023/09/30 06:17:51;;;;;;;1999.90;999.90;;;13.20;91.10;;;;;;5035315;28;20025;-83
2023/09/30 06:20:18;;;;;;;1999.90;999.90;;;13.50;90.80;;;;;;5037659;28;20033;-81
2023/09/30 06:22:49;;;;;;;1999.90;999.90;;;13.60;90.20;;;;;;5034267;28;20087;-81
2023/09/30 06:25:16;;;;;;;1999.90;999.90;;;13.80;89.20;;;;;;5037570;28;20068;-84
2023/09/30 06:27:45;;;;;;;1999.90;999.90;;;13.70;90.00;;;;;;5038636;28;20115;-81
2023/09/30 06:30:13;;;;;;;1999.90;999.90;;;13.80;90.20;;;;;;5033554;28;20081;-83
2023/09/30 06:32:40;;;;;;;1999.90;999.90;;;13.80;90.10;;;;;;5036404;28;20055;-82
2023/09/30 06:35:06;;;;;;;1999.90;999.90;;;13.90;89.30;;;;;;5031166;28;20045;-77
2023/09/30 06:37:32;;;;;;;1999.90;999.90;;;13.90;88.90;;;;;;5031336;28;20052;-83
2023/09/30 06:39:59;;;;;;;1999.90;999.90;;;13.90;89.00;;;;;;5028878;28;20124;-82
2023/09/30 06:42:26;;;;;;;1999.90;999.90;;;13.80;90.20;;;;;;5031611;28;20021;-85
2023/09/30 06:44:53;;;;;;;1999.90;999.90;;;13.90;89.90;;;;;;5028787;28;20043;-81
2023/09/30 06:47:20;;;;;;;1999.90;999.90;;;14.10;89.00;;;;;;5027656;28;20552;-82
2023/09/30 06:49:46;;;;;;;1999.90;999.90;;;14.10;88.40;;;;;;5051999;28;20082;-81
2023/09/30 06:52:13;;;;;;;1999.90;999.90;;;14.10;88.20;;;;;;5028638;28;20029;-81
2023/09/30 06:54:38;;;;;;;1999.90;999.90;;;14.00;89.20;;;;;;5035976;28;20033;-80
2023/09/30 06:57:04;;;;;;;1999.90;999.90;;;14.00;89.10;;;;;;5033780;28;20033;-81
2023/09/30 06:59:32;;;;;;;1999.90;999.90;;;14.20;87.80;;;;;;5030943;28;20068;-82
2023/09/30 07:01:58;;;;;;;1999.90;999.90;;;14.30;87.10;;;;;;5029498;28;20041;-81
2023/09/30 07:04:25;;;;;;;1999.90;999.90;;;14.50;86.60;;;;;;5018442;28;20041;-83
2023/09/30 07:06:55;;;;;;;1999.90;999.90;;;14.60;86.40;;;;;;5035242;28;20040;-85
2023/09/30 07:09:21;;;;;;;1999.90;999.90;;;14.70;86.10;;;;;;5032248;28;20099;-80
2023/09/30 07:11:49;;;;;;;1999.90;999.90;;;14.70;85.90;;;;;;5044786;28;20030;-74
2023/09/30 07:14:14;;;;;;;1999.90;999.90;;;14.80;85.90;;;;;;5041073;28;20029;-76
2023/09/30 07:16:40;;;;;;;1999.90;999.90;;;15.00;85.00;;;;;;5037288;28;20040;-83
2023/09/30 07:19:08;;;;;;;1999.90;999.90;;;15.10;83.80;;;;;;5027966;28;20033;-77
2023/09/30 07:21:34;;;;;;;1999.90;999.90;;;15.30;83.40;;;;;;5036381;28;20056;-79
2023/09/30 07:24:00;;;;;;;1999.90;999.90;;;15.30;82.90;;;;;;5038820;28;20699;-83
2023/09/30 07:26:27;;;;;;;1999.90;999.90;;;15.40;83.20;;;;;;5069209;28;20032;-79
2023/09/30 07:28:54;;;;;;;1999.90;999.90;;;15.40;82.50;;;;;;5043042;28;20486;-73
2023/09/30 07:31:20;;;;;;;1999.90;999.90;;;15.40;82.80;;;;;;5031463;28;20085;-72
2023/09/30 07:33:45;;;;;;;1999.90;999.90;;;15.30;83.50;;;;;;5029383;28;20076;-74
2023/09/30 07:36:14;;;;;;;1999.90;999.90;;;15.30;83.70;;;;;;5026830;28;20037;-74
2023/09/30 07:38:40;;;;;;;1999.90;999.90;;;15.50;82.00;;;;;;5029586;28;20067;-74
2023/09/30 07:41:06;;;;;;;1999.90;999.90;;;15.50;82.30;;;;;;5042624;28;20072;-73
2023/09/30 07:43:31;;;;;;;1999.90;999.90;;;15.60;81.90;;;;;;5039326;28;20033;-74
2023/09/30 07:45:57;;;;;;;1999.90;999.90;;;15.60;81.80;;;;;;5042087;28;20108;-74
2023/09/30 07:48:25;;;;;;;1999.90;999.90;;;15.60;81.60;;;;;;5037915;28;20037;-74
2023/09/30 07:50:50;;;;;;;1999.90;999.90;;;15.80;82.30;;;;;;5039107;28;20033;-74
2023/09/30 07:53:16;;;;;;;1999.90;999.90;;;15.90;81.40;;;;;;5040642;28;20094;-73
2023/09/30 07:55:42;;;;;;;1999.90;999.90;;;15.90;81.10;;;;;;5034349;28;20542;-74
2023/09/30 07:58:07;;;;;;;1999.90;999.90;;;16.20;80.30;;;;;;5038660;28;20045;-74
2023/09/30 08:00:33;;;;;;;1999.90;999.90;;;16.00;80.40;;;;;;5038630;28;20088;-74
2023/09/30 08:03:00;;;;;;;1999.90;999.90;;;15.80;80.70;;;;;;5041392;28;20525;-74
2023/09/30 08:05:26;;;;;;;1999.90;999.90;;;16.10;80.70;;;;;;5034690;28;20057;-73
2023/09/30 08:07:52;;;;;;;1999.90;999.90;;;16.50;77.20;;;;;;5040652;28;20100;-73
2023/09/30 08:10:18;;;;;;;1999.90;999.90;;;16.50;77.20;;;;;;5035493;28;20037;-74
2023/09/30 08:12:48;;;;;;;1999.90;999.90;;;16.40;77.80;;;;;;5043583;28;20033;-74
2023/09/30 08:15:14;;;;;;;1999.90;999.90;;;16.60;77.50;;;;;;5037071;28;20107;-73
2023/09/30 08:17:40;;;;;;;1999.90;999.90;;;16.50;76.30;;;;;;5040686;28;20033;-74
2023/09/30 08:20:06;;;;;;;1999.90;999.90;;;16.40;76.90;;;;;;5037211;28;20037;-74
2023/09/30 08:22:32;;;;;;;1999.90;999.90;;;16.40;77.30;;;;;;5045214;28;20179;-74
2023/09/30 08:24:58;;;;;;;1999.90;999.90;;;16.70;77.20;;;;;;5037932;28;20476;-73
2023/09/30 08:27:24;;;;;;;1999.90;999.90;;;16.70;76.60;;;;;;5040852;28;20073;-73
2023/09/30 08:29:50;;;;;;;1999.90;999.90;;;16.70;76.20;;;;;;5039456;28;20065;-74
2023/09/30 08:32:16;;;;;;;1999.90;999.90;;;16.60;76.60;;;;;;5035582;28;20607;-73
2023/09/30 08:34:41;;;;;;;1999.90;999.90;;;16.70;75.50;;;;;;5037172;28;20483;-74
2023/09/30 08:37:07;;;;;;;1999.90;999.90;;;16.60;75.50;;;;;;5039246;28;20079;-73
2023/09/30 08:39:38;;;;;;;1999.90;999.90;;;16.80;75.70;;;;;;5039885;28;20025;-74
2023/09/30 08:42:09;;;;;;;1999.90;999.90;;;17.40;74.50;;;;;;5042304;28;20037;-73
2023/09/30 08:44:35;;;;;;;;;;;17.70;72.70;;;;;;5036943;28;20033;-74
2023/09/30 08:47:01;;;;;;;1999.90;999.90;;;17.80;73.80;;;;;;5033770;28;19917;-72
2023/09/30 08:49:27;;;;;;;1999.90;999.90;;;17.80;72.90;;;;;;5033184;28;20041;-72
2023/09/30 08:51:57;;;;;;;1999.90;999.90;;;17.70;72.80;;;;;;5042173;28;20036;-74
2023/09/30 08:54:23;;;;;;;1999.90;999.90;;;17.40;74.00;;;;;;5033959;28;20441;-73
2023/09/30 08:56:49;;;;;;;1999.90;999.90;;;17.40;74.20;;;;;;5034973;28;20041;-74
2023/09/30 08:59:15;;;;;;;1999.90;999.90;;;17.50;74.70;;;;;;5033030;28;20029;-74
2023/09/30 09:01:41;;;;;;;1999.90;999.90;;;17.40;75.20;;;;;;5034197;28;20021;-74
2023/09/30 09:04:07;;;;;;;1999.90;999.90;;;17.70;75.50;;;;;;5037534;28;20536;-73
2023/09/30 09:06:33;;;;;;;1999.90;999.90;;;17.50;73.70;;;;;;5040227;28;20079;-73
2023/09/30 09:09:18;;;;;;;1999.90;999.90;;;17.50;74.90;;;;;;5037962;28;20756;-74
2023/09/30 09:11:44;;;;;;;1999.90;999.90;;;17.70;75.90;;;;;;5033254;28;20461;-74
2023/09/30 09:14:10;;;;;;;1999.90;999.90;;;17.70;74.60;;;;;;5038530;28;20044;-74
2023/09/30 09:16:36;;;;;;;1999.90;999.90;;;17.90;75.40;;;;;;5036080;28;20060;-73
2023/09/30 09:19:17;;;;;;;1999.90;999.90;;;18.20;73.90;;;;;;5037137;28;20033;-73
2023/09/30 09:21:59;;;;;;;1999.90;999.90;;;18.20;72.40;;;;;;5038006;28;20034;-73
2023/09/30 09:24:28;;;;;;;1999.90;999.90;;;18.10;71.90;;;;;;5032346;28;20029;-73
2023/09/30 09:27:11;;;;;;;1999.90;999.90;;;18.20;70.10;;;;;;5034136;28;20087;-73
2023/09/30 09:29:37;;;;;;;1999.90;999.90;;;18.20;70.20;;;;;;5035241;28;20033;-73
2023/09/30 09:32:10;;;;;;;1999.90;999.90;;;18.20;71.10;;;;;;5030862;28;20080;-73
2023/09/30 09:34:37;;;;;;;1999.90;999.90;;;18.70;70.90;;;;;;5028633;28;20163;-71
2023/09/30 09:37:18;;;;;;;1999.90;999.90;;;18.70;68.40;;;;;;5031786;28;20028;-73
2023/09/30 09:39:51;;;;;;;1999.90;999.90;;;18.90;66.30;;;;;;5036050;28;20127;-73
2023/09/30 09:42:28;;;;;;;1999.90;999.90;;;18.70;68.20;;;;;;5034094;28;20052;-73
2023/09/30 09:45:03;;;;;;;1999.90;999.90;;;18.60;67.90;;;;;;5032835;28;20045;-73
2023/09/30 09:47:33;;;;;;;1999.90;999.90;;;18.70;69.20;;;;;;5039743;28;20040;-73
2023/09/30 09:49:59;;;;;;;1999.90;999.90;;;18.80;68.40;;;;;;5034983;28;20037;-71
2023/09/30 09:52:27;;;;;;;1999.90;999.90;;;19.40;65.20;;;;;;5035768;28;20648;-71
2023/09/30 09:54:53;;;;;;;1999.90;999.90;;;19.50;64.80;;;;;;5035893;28;20442;-71
2023/09/30 09:57:19;;;;;;;1999.90;999.90;;;19.30;64.60;;;;;;5037473;28;20041;-71
2023/09/30 09:59:50;;;;;;;1999.90;999.90;;;19.20;65.30;;;;;;5032490;28;20032;-71
2023/09/30 10:02:17;;;;;;;1999.90;999.90;;;18.90;65.60;;;;;;5038504;28;20350;-71
2023/09/30 10:04:47;;;;;;;1999.90;999.90;;;18.90;66.70;;;;;;5034682;28;20668;-71
2023/09/30 10:07:33;;;;;;;1999.90;999.90;;;19.20;65.70;;;;;;5035766;28;20042;-71
2023/09/30 10:10:02;;;;;;;1999.90;999.90;;;19.50;64.60;;;;;;5031675;28;20037;-71
2023/09/30 10:12:35;;;;;;;1999.90;999.90;;;19.80;64.00;;;;;;5036637;28;20462;-71
2023/09/30 10:15:21;;;;;;;1999.90;999.90;;;19.80;62.80;;;;;;5034060;28;20701;-72
2023/09/30 10:18:00;;;;;;;1999.90;999.90;;;19.80;61.50;;;;;;5035416;28;20484;-71
2023/09/30 10:20:33;;;;;;;1999.90;999.90;;;19.60;62.00;;;;;;5032148;28;20038;-72
2023/09/30 10:23:17;;;;;;;1999.90;999.90;;;19.70;63.50;;;;;;5031967;28;20037;-71
2023/09/30 10:25:47;;;;;;;1999.90;999.90;;;19.90;62.80;;;;;;5034469;28;20047;-71
2023/09/30 10:28:37;;;;;;;1999.90;999.90;;;19.90;62.90;;;;;;5038085;28;20032;-71
2023/09/30 10:31:10;;;;;;;;;;;19.60;64.20;;;;;;5037080;28;20195;-71
2023/09/30 10:33:36;;;;;;;1999.90;999.90;;;20.00;60.90;;;;;;5032485;28;19917;-71
2023/09/30 10:36:03;;;;;;;1999.90;999.90;;;19.90;63.30;;;;;;5060339;28;20029;-71
2023/09/30 10:38:34;;;;;;;1999.90;999.90;;;19.90;62.40;;;;;;5039185;28;20030;-72
2023/09/30 10:41:02;;;;;;;1999.90;999.90;;;20.00;61.80;;;;;;5040671;28;20120;-71
2023/09/30 10:43:30;;;;;;;1999.90;999.90;;;19.90;63.70;;;;;;5043199;28;20041;-71
2023/09/30 10:45:56;;;;;;;1999.90;999.90;;;20.10;61.00;;;;;;5040873;28;20033;-71
2023/09/30 10:48:25;;;;;;;1999.90;999.90;;;20.00;58.20;;;;;;5045385;28;20036;-71
2023/09/30 10:51:01;;;;;;;1999.90;999.90;;;19.60;61.40;;;;;;5040516;28;20040;-71
2023/09/30 10:53:28;;;;;;;1999.90;999.90;;;20.20;60.80;;;;;;5032786;28;20026;-71
2023/09/30 10:55:58;;;;;;;1999.90;999.90;;;21.00;57.60;;;;;;5038117;28;20204;-71
2023/09/30 10:58:48;;;;;;;1999.90;999.90;;;20.70;57.80;;;;;;5042929;28;20469;-71
2023/09/30 11:01:18;;;;;;;1999.90;999.90;;;20.90;57.50;;;;;;5043076;28;20399;-71
2023/09/30 11:03:45;;;;;;;1999.90;999.90;;;21.00;56.80;;;;;;5041180;28;20042;-72
2023/09/30 11:06:16;;;;;;;1999.90;999.90;;;20.90;56.10;;;;;;5041833;28;20033;-72
2023/09/30 11:09:08;;;;;;;1999.90;999.90;;;20.40;57.70;;;;;;5039793;28;20120;-71
2023/09/30 11:11:57;;;;;;;1999.90;999.90;;;20.80;54.90;;;;;;5038387;28;20070;-71
2023/09/30 11:14:29;;;;;;;1999.90;999.90;;;20.80;58.10;;;;;;5037803;28;20455;-71
2023/09/30 11:16:57;;;;;;;1999.90;999.90;;;20.90;58.10;;;;;;5035255;28;20450;-71
2023/09/30 11:19:23;;;;;;;1999.90;999.90;;;20.90;57.50;;;;;;5042849;28;20067;-71
2023/09/30 11:21:50;;;;;;;1999.90;999.90;;;20.90;54.70;;;;;;5040091;28;20055;-71
2023/09/30 11:24:17;;;;;;;1999.90;999.90;;;20.60;56.10;;;;;;5037906;28;20094;-71
2023/09/30 11:26:43;;;;;;;1999.90;999.90;;;21.00;57.10;;;;;;5038136;28;20049;-72
2023/09/30 11:29:15;;;;;;;1999.90;999.90;;;20.90;57.70;;;;;;5043841;28;20051;-71
2023/09/30 11:31:46;;;;;;;1999.90;999.90;;;21.10;56.60;;;;;;5036105;28;20064;-72
2023/09/30 11:34:12;;;;;;;1999.90;999.90;;;22.10;51.00;;;;;;5042375;28;20075;-72
2023/09/30 11:36:44;;;;;;;1999.90;999.90;;;21.80;50.80;;;;;;5042018;28;20022;-71
2023/09/30 11:39:20;;;;;;;1999.90;999.90;;;21.90;49.50;;;;;;5043616;28;20017;-71
2023/09/30 11:41:46;;;;;;;1999.90;999.90;;;21.90;50.50;;;;;;5041190;28;20422;-72
2023/09/30 11:44:13;;;;;;;1999.90;999.90;;;22.90;47.30;;;;;;5030272;28;20029;-72
2023/09/30 11:47:00;;;;;;;1999.90;999.90;;;22.40;47.90;;;;;;5043297;28;20044;-72
2023/09/30 11:49:35;;;;;;;1999.90;999.90;;;22.80;46.60;;;;;;5034942;28;20670;-71
2023/09/30 11:52:03;;;;;;;1999.90;999.90;;;23.00;44.40;;;;;;5040031;28;20095;-72
2023/09/30 11:54:34;;;;;;;1999.90;999.90;;;23.60;46.20;;;;;;5039864;28;20033;-72
2023/09/30 11:57:01;;;;;;;1999.90;999.90;;;24.00;45.10;;;;;;5039554;28;20024;-72
2023/09/30 11:59:27;;;;;;;1999.90;999.90;;;24.50;44.40;;;;;;5040089;28;20064;-72
2023/09/30 12:01:53;;;;;;;1999.90;999.90;;;24.20;42.50;;;;;;5035496;28;20111;-72
2023/09/30 12:04:19;;;;;;;1999.90;999.90;;;22.90;46.80;;;;;;5040707;28;20412;-72